sensor_id;sensor_type;location;lat;lon;timestamp;temperature;humidity
64111;DHT22;50401;48.188;11.566;2023-03-14T00:00:59;11.91;73.54
64111;DHT22;50401;48.188;11.566;2023-03-14T00:03:24;11.96;73.40
64111;DHT22;50401;48.188;11.566;2023-03-14T00:05:49;12.00;73.26
64111;DHT22;50401;48.188;11.566;2023-03-14T00:08:15;12.08;73.05
64111;DHT22;50401;48.188;11.566;2023-03-14T00:10:40;12.08;73.09
64111;DHT22;50401;48.188;11.566;2023-03-14T00:13:06;12.12;73.03
64111;DHT22;50401;48.188;11.566;2023-03-14T00:15:33;12.14;73.00
64111;DHT22;50401;48.188;11.566;2023-03-14T00:17:59;12.18;72.89
64111;DHT22;50401;48.188;11.566;2023-03-14T00:20:25;12.20;72.88
64111;DHT22;50401;48.188;11.566;2023-03-14T00:22:50;12.25;72.94
64111;DHT22;50401;48.188;11.566;2023-03-14T00:25:15;12.16;73.15
64111;DHT22;50401;48.188;11.566;2023-03-14T00:27:41;12.17;73.12
64111;DHT22;50401;48.188;11.566;2023-03-14T00:30:07;12.17;73.21
64111;DHT22;50401;48.188;11.566;2023-03-14T00:32:35;12.18;73.14
64111;DHT22;50401;48.188;11.566;2023-03-14T00:35:01;12.24;72.98
64111;DHT22;50401;48.188;11.566;2023-03-14T00:37:27;12.28;72.82
64111;DHT22;50401;48.188;11.566;2023-03-14T00:39:52;12.24;72.92
64111;DHT22;50401;48.188;11.566;2023-03-14T00:42:17;12.10;73.17
64111;DHT22;50401;48.188;11.566;2023-03-14T00:44:43;12.12;73.34
64111;DHT22;50401;48.188;11.566;2023-03-14T00:47:08;12.13;73.32
64111;DHT22;50401;48.188;11.566;2023-03-14T00:49:34;12.13;73.41
64111;DHT22;50401;48.188;11.566;2023-03-14T00:51:59;12.18;73.44
64111;DHT22;50401;48.188;11.566;2023-03-14T00:54:24;12.16;73.37
64111;DHT22;50401;48.188;11.566;2023-03-14T00:56:50;12.14;73.47
64111;DHT22;50401;48.188;11.566;2023-03-14T00:59:16;12.04;73.74
64111;DHT22;50401;48.188;11.566;2023-03-14T01:01:41;12.08;73.77
64111;DHT22;50401;48.188;11.566;2023-03-14T01:04:07;12.12;73.89
64111;DHT22;50401;48.188;11.566;2023-03-14T01:06:33;12.13;73.79
64111;DHT22;50401;48.188;11.566;2023-03-14T01:08:59;12.08;74.03
64111;DHT22;50401;48.188;11.566;2023-03-14T01:11:28;12.14;74.18
64111;DHT22;50401;48.188;11.566;2023-03-14T01:13:54;12.17;74.63
64111;DHT22;50401;48.188;11.566;2023-03-14T01:16:21;12.17;75.21
64111;DHT22;50401;48.188;11.566;2023-03-14T01:18:47;12.12;75.57
64111;DHT22;50401;48.188;11.566;2023-03-14T01:21:34;12.06;75.99
64111;DHT22;50401;48.188;11.566;2023-03-14T01:24:00;11.98;76.30
64111;DHT22;50401;48.188;11.566;2023-03-14T01:26:28;11.89;76.60
64111;DHT22;50401;48.188;11.566;2023-03-14T01:28:54;11.89;77.06
64111;DHT22;50401;48.188;11.566;2023-03-14T01:31:20;11.86;77.58
64111;DHT22;50401;48.188;11.566;2023-03-14T01:33:46;11.79;77.66
64111;DHT22;50401;48.188;11.566;2023-03-14T01:36:12;11.73;77.98
64111;DHT22;50401;48.188;11.566;2023-03-14T01:38:38;11.73;78.49
64111;DHT22;50401;48.188;11.566;2023-03-14T01:41:05;11.79;78.90
64111;DHT22;50401;48.188;11.566;2023-03-14T01:43:31;11.83;79.22
64111;DHT22;50401;48.188;11.566;2023-03-14T01:54:30;11.61;80.03
64111;DHT22;50401;48.188;11.566;2023-03-14T01:59:53;11.44;80.45
64111;DHT22;50401;48.188;11.566;2023-03-14T02:02:19;11.39;80.39
64111;DHT22;50401;48.188;11.566;2023-03-14T02:04:45;11.30;80.74
64111;DHT22;50401;48.188;11.566;2023-03-14T02:07:29;11.21;81.28
64111;DHT22;50401;48.188;11.566;2023-03-14T02:09:57;11.09;81.71
64111;DHT22;50401;48.188;11.566;2023-03-14T02:12:24;11.10;81.53
64111;DHT22;50401;48.188;11.566;2023-03-14T02:14:50;10.99;81.75
64111;DHT22;50401;48.188;11.566;2023-03-14T02:17:17;10.97;81.79
64111;DHT22;50401;48.188;11.566;2023-03-14T02:22:10;10.96;81.33
64111;DHT22;50401;48.188;11.566;2023-03-14T02:27:39;10.65;81.57
64111;DHT22;50401;48.188;11.566;2023-03-14T02:30:10;10.47;81.72
64111;DHT22;50401;48.188;11.566;2023-03-14T02:32:37;10.34;81.88
64111;DHT22;50401;48.188;11.566;2023-03-14T02:35:08;10.40;81.98
64111;DHT22;50401;48.188;11.566;2023-03-14T02:40:30;9.99;82.93
64111;DHT22;50401;48.188;11.566;2023-03-14T02:42:56;9.79;83.80
64111;DHT22;50401;48.188;11.566;2023-03-14T02:47:52;9.68;84.99
64111;DHT22;50401;48.188;11.566;2023-03-14T02:50:22;9.68;85.15
64111;DHT22;50401;48.188;11.566;2023-03-14T02:52:48;9.57;85.02
64111;DHT22;50401;48.188;11.566;2023-03-14T02:55:14;9.64;85.11
64111;DHT22;50401;48.188;11.566;2023-03-14T02:57:39;9.65;85.07
64111;DHT22;50401;48.188;11.566;2023-03-14T03:00:05;9.91;84.79
64111;DHT22;50401;48.188;11.566;2023-03-14T03:02:31;10.05;83.10
64111;DHT22;50401;48.188;11.566;2023-03-14T03:04:56;10.14;83.13
64111;DHT22;50401;48.188;11.566;2023-03-14T03:07:22;10.32;82.72
64111;DHT22;50401;48.188;11.566;2023-03-14T03:09:47;10.32;82.04
64111;DHT22;50401;48.188;11.566;2023-03-14T03:12:13;10.32;81.55
64111;DHT22;50401;48.188;11.566;2023-03-14T03:14:38;10.24;81.30
64111;DHT22;50401;48.188;11.566;2023-03-14T03:17:04;10.26;80.90
64111;DHT22;50401;48.188;11.566;2023-03-14T03:19:30;10.21;80.64
64111;DHT22;50401;48.188;11.566;2023-03-14T03:21:56;10.29;80.87
64111;DHT22;50401;48.188;11.566;2023-03-14T03:24:21;10.29;80.94
64111;DHT22;50401;48.188;11.566;2023-03-14T03:26:46;10.20;80.44
64111;DHT22;50401;48.188;11.566;2023-03-14T03:29:12;10.08;80.77
64111;DHT22;50401;48.188;11.566;2023-03-14T03:31:38;10.08;80.69
64111;DHT22;50401;48.188;11.566;2023-03-14T03:34:03;10.03;81.11
64111;DHT22;50401;48.188;11.566;2023-03-14T03:36:29;10.03;80.81
64111;DHT22;50401;48.188;11.566;2023-03-14T03:38:54;10.09;80.97
64111;DHT22;50401;48.188;11.566;2023-03-14T03:41:19;10.13;80.10
64111;DHT22;50401;48.188;11.566;2023-03-14T03:43:45;10.03;80.13
64111;DHT22;50401;48.188;11.566;2023-03-14T03:46:10;10.05;79.55
64111;DHT22;50401;48.188;11.566;2023-03-14T03:48:36;10.02;79.63
64111;DHT22;50401;48.188;11.566;2023-03-14T03:51:01;9.95;79.86
64111;DHT22;50401;48.188;11.566;2023-03-14T03:53:27;9.98;79.68
64111;DHT22;50401;48.188;11.566;2023-03-14T03:55:52;9.95;79.82
64111;DHT22;50401;48.188;11.566;2023-03-14T03:58:18;9.84;80.07
64111;DHT22;50401;48.188;11.566;2023-03-14T04:00:44;9.89;79.77
64111;DHT22;50401;48.188;11.566;2023-03-14T04:03:09;9.88;79.60
64111;DHT22;50401;48.188;11.566;2023-03-14T04:05:35;9.95;79.16
64111;DHT22;50401;48.188;11.566;2023-03-14T04:08:01;9.93;78.99
64111;DHT22;50401;48.188;11.566;2023-03-14T04:10:26;9.98;78.57
64111;DHT22;50401;48.188;11.566;2023-03-14T04:12:52;9.91;78.19
64111;DHT22;50401;48.188;11.566;2023-03-14T04:15:17;9.85;77.84
64111;DHT22;50401;48.188;11.566;2023-03-14T04:17:43;9.95;77.80
64111;DHT22;50401;48.188;11.566;2023-03-14T04:20:08;9.92;77.98
64111;DHT22;50401;48.188;11.566;2023-03-14T04:22:38;9.79;77.57
64111;DHT22;50401;48.188;11.566;2023-03-14T04:25:04;9.82;78.08
64111;DHT22;50401;48.188;11.566;2023-03-14T04:27:30;9.75;78.07
64111;DHT22;50401;48.188;11.566;2023-03-14T04:29:55;9.79;78.25
64111;DHT22;50401;48.188;11.566;2023-03-14T04:32:21;9.89;78.09
64111;DHT22;50401;48.188;11.566;2023-03-14T04:34:46;9.91;78.09
64111;DHT22;50401;48.188;11.566;2023-03-14T04:37:12;9.95;78.03
64111;DHT22;50401;48.188;11.566;2023-03-14T04:39:37;9.91;77.67
64111;DHT22;50401;48.188;11.566;2023-03-14T04:42:02;9.91;77.86
64111;DHT22;50401;48.188;11.566;2023-03-14T04:44:28;9.79;77.65
64111;DHT22;50401;48.188;11.566;2023-03-14T04:46:53;9.73;77.68
64111;DHT22;50401;48.188;11.566;2023-03-14T04:49:19;9.62;77.86
64111;DHT22;50401;48.188;11.566;2023-03-14T04:51:45;9.81;77.91
64111;DHT22;50401;48.188;11.566;2023-03-14T04:54:10;9.68;77.31
64111;DHT22;50401;48.188;11.566;2023-03-14T04:56:36;9.75;77.19
64111;DHT22;50401;48.188;11.566;2023-03-14T04:59:02;9.75;77.01
64111;DHT22;50401;48.188;11.566;2023-03-14T05:01:28;9.61;76.90
64111;DHT22;50401;48.188;11.566;2023-03-14T05:03:53;9.55;77.37
64111;DHT22;50401;48.188;11.566;2023-03-14T05:06:18;9.48;77.26
64111;DHT22;50401;48.188;11.566;2023-03-14T05:08:44;9.59;77.64
64111;DHT22;50401;48.188;11.566;2023-03-14T05:11:10;9.65;77.30
64111;DHT22;50401;48.188;11.566;2023-03-14T05:13:36;9.74;77.29
64111;DHT22;50401;48.188;11.566;2023-03-14T05:16:06;9.85;76.87
64111;DHT22;50401;48.188;11.566;2023-03-14T05:18:32;9.88;76.38
64111;DHT22;50401;48.188;11.566;2023-03-14T05:20:58;9.93;76.36
64111;DHT22;50401;48.188;11.566;2023-03-14T05:23:24;9.93;76.35
64111;DHT22;50401;48.188;11.566;2023-03-14T05:25:49;9.96;76.20
64111;DHT22;50401;48.188;11.566;2023-03-14T05:28:14;9.98;76.34
64111;DHT22;50401;48.188;11.566;2023-03-14T05:30:40;9.95;76.01
64111;DHT22;50401;48.188;11.566;2023-03-14T05:33:05;10.02;76.15
64111;DHT22;50401;48.188;11.566;2023-03-14T05:35:30;10.08;76.18
64111;DHT22;50401;48.188;11.566;2023-03-14T05:37:56;10.09;75.65
64111;DHT22;50401;48.188;11.566;2023-03-14T05:40:21;10.05;75.74
64111;DHT22;50401;48.188;11.566;2023-03-14T05:42:47;10.05;75.74
64111;DHT22;50401;48.188;11.566;2023-03-14T05:45:12;9.91;75.84
64111;DHT22;50401;48.188;11.566;2023-03-14T05:47:37;9.89;75.75
64111;DHT22;50401;48.188;11.566;2023-03-14T05:50:03;9.84;75.99
64111;DHT22;50401;48.188;11.566;2023-03-14T05:52:29;9.78;75.74
64111;DHT22;50401;48.188;11.566;2023-03-14T05:54:54;9.77;76.09
64111;DHT22;50401;48.188;11.566;2023-03-14T05:57:19;9.81;76.30
64111;DHT22;50401;48.188;11.566;2023-03-14T05:59:45;9.74;76.22
64111;DHT22;50401;48.188;11.566;2023-03-14T06:02:10;9.79;76.08
64111;DHT22;50401;48.188;11.566;2023-03-14T06:04:35;9.78;76.20
64111;DHT22;50401;48.188;11.566;2023-03-14T06:07:01;9.81;76.04
64111;DHT22;50401;48.188;11.566;2023-03-14T06:09:26;9.68;76.44
64111;DHT22;50401;48.188;11.566;2023-03-14T06:11:51;9.73;76.26
64111;DHT22;50401;48.188;11.566;2023-03-14T06:14:17;9.78;76.06
64111;DHT22;50401;48.188;11.566;2023-03-14T06:16:42;9.78;75.80
64111;DHT22;50401;48.188;11.566;2023-03-14T06:19:08;9.81;75.78
64111;DHT22;50401;48.188;11.566;2023-03-14T06:21:33;9.89;75.72
64111;DHT22;50401;48.188;11.566;2023-03-14T06:23:58;9.88;75.45
64111;DHT22;50401;48.188;11.566;2023-03-14T06:26:24;9.99;75.63
64111;DHT22;50401;48.188;11.566;2023-03-14T06:28:49;10.09;75.16
64111;DHT22;50401;48.188;11.566;2023-03-14T06:31:16;10.14;74.84
64111;DHT22;50401;48.188;11.566;2023-03-14T06:33:41;10.16;74.81
64111;DHT22;50401;48.188;11.566;2023-03-14T06:36:07;10.23;75.00
64111;DHT22;50401;48.188;11.566;2023-03-14T06:38:33;10.24;74.67
64111;DHT22;50401;48.188;11.566;2023-03-14T06:41:07;10.26;74.08
64111;DHT22;50401;48.188;11.566;2023-03-14T06:43:33;10.23;74.34
64111;DHT22;50401;48.188;11.566;2023-03-14T06:45:59;10.27;74.11
64111;DHT22;50401;48.188;11.566;2023-03-14T06:48:24;10.27;73.94
64111;DHT22;50401;48.188;11.566;2023-03-14T06:50:49;10.38;74.26
64111;DHT22;50401;48.188;11.566;2023-03-14T06:53:15;10.55;73.52
64111;DHT22;50401;48.188;11.566;2023-03-14T06:55:40;10.57;73.45
64111;DHT22;50401;48.188;11.566;2023-03-14T06:58:06;10.58;73.37
64111;DHT22;50401;48.188;11.566;2023-03-14T07:00:33;10.60;72.41
64111;DHT22;50401;48.188;11.566;2023-03-14T07:02:59;10.61;72.56
64111;DHT22;50401;48.188;11.566;2023-03-14T07:05:24;10.47;72.57
64111;DHT22;50401;48.188;11.566;2023-03-14T07:07:49;10.44;72.43
64111;DHT22;50401;48.188;11.566;2023-03-14T07:10:15;10.38;72.44
64111;DHT22;50401;48.188;11.566;2023-03-14T07:12:40;10.38;72.42
64111;DHT22;50401;48.188;11.566;2023-03-14T07:15:06;10.52;72.60
64111;DHT22;50401;48.188;11.566;2023-03-14T07:17:32;10.67;72.68
64111;DHT22;50401;48.188;11.566;2023-03-14T07:19:57;10.75;74.18
64111;DHT22;50401;48.188;11.566;2023-03-14T07:22:22;10.88;72.84
64111;DHT22;50401;48.188;11.566;2023-03-14T07:24:48;10.88;72.03
64111;DHT22;50401;48.188;11.566;2023-03-14T07:27:13;10.75;71.79
64111;DHT22;50401;48.188;11.566;2023-03-14T07:29:38;10.61;71.96
64111;DHT22;50401;48.188;11.566;2023-03-14T07:32:04;10.71;71.67
64111;DHT22;50401;48.188;11.566;2023-03-14T07:34:29;10.62;71.94
64111;DHT22;50401;48.188;11.566;2023-03-14T07:36:54;10.68;71.91
64111;DHT22;50401;48.188;11.566;2023-03-14T07:39:20;10.69;71.75
64111;DHT22;50401;48.188;11.566;2023-03-14T07:41:45;10.71;71.76
64111;DHT22;50401;48.188;11.566;2023-03-14T07:44:11;10.82;71.33
64111;DHT22;50401;48.188;11.566;2023-03-14T07:46:36;10.85;70.95
64111;DHT22;50401;48.188;11.566;2023-03-14T07:49:01;10.97;70.52
64111;DHT22;50401;48.188;11.566;2023-03-14T07:51:27;10.97;70.62
64111;DHT22;50401;48.188;11.566;2023-03-14T07:53:52;11.02;70.49
64111;DHT22;50401;48.188;11.566;2023-03-14T07:56:17;10.79;70.27
64111;DHT22;50401;48.188;11.566;2023-03-14T07:58:43;10.95;70.34
64111;DHT22;50401;48.188;11.566;2023-03-14T08:01:08;11.04;70.24
64111;DHT22;50401;48.188;11.566;2023-03-14T08:03:34;11.11;70.15
64111;DHT22;50401;48.188;11.566;2023-03-14T08:05:59;11.14;70.06
64111;DHT22;50401;48.188;11.566;2023-03-14T08:08:24;11.17;70.40
64111;DHT22;50401;48.188;11.566;2023-03-14T08:10:50;11.32;70.02
64111;DHT22;50401;48.188;11.566;2023-03-14T08:13:15;11.39;69.73
64111;DHT22;50401;48.188;11.566;2023-03-14T08:15:40;11.45;69.11
64111;DHT22;50401;48.188;11.566;2023-03-14T08:18:06;11.46;68.71
64111;DHT22;50401;48.188;11.566;2023-03-14T08:20:31;11.42;68.73
64111;DHT22;50401;48.188;11.566;2023-03-14T08:22:59;11.45;68.44
64111;DHT22;50401;48.188;11.566;2023-03-14T08:25:25;11.44;68.62
64111;DHT22;50401;48.188;11.566;2023-03-14T08:27:51;11.45;68.64
64111;DHT22;50401;48.188;11.566;2023-03-14T08:30:18;11.51;68.66
64111;DHT22;50401;48.188;11.566;2023-03-14T08:32:44;11.51;68.33
64111;DHT22;50401;48.188;11.566;2023-03-14T08:35:09;11.54;68.44
64111;DHT22;50401;48.188;11.566;2023-03-14T08:37:35;11.51;68.19
64111;DHT22;50401;48.188;11.566;2023-03-14T08:40:02;11.42;68.34
64111;DHT22;50401;48.188;11.566;2023-03-14T08:42:32;11.51;68.38
64111;DHT22;50401;48.188;11.566;2023-03-14T08:44:57;11.54;68.19
64111;DHT22;50401;48.188;11.566;2023-03-14T08:47:23;11.62;68.24
64111;DHT22;50401;48.188;11.566;2023-03-14T08:49:48;11.61;68.20
64111;DHT22;50401;48.188;11.566;2023-03-14T08:52:13;11.59;67.81
64111;DHT22;50401;48.188;11.566;2023-03-14T08:54:41;11.59;67.68
64111;DHT22;50401;48.188;11.566;2023-03-14T08:57:08;11.59;67.35
64111;DHT22;50401;48.188;11.566;2023-03-14T08:59:33;11.61;67.45
64111;DHT22;50401;48.188;11.566;2023-03-14T09:01:58;11.65;67.73
64111;DHT22;50401;48.188;11.566;2023-03-14T09:04:24;11.69;66.85
64111;DHT22;50401;48.188;11.566;2023-03-14T09:06:49;11.73;66.96
64111;DHT22;50401;48.188;11.566;2023-03-14T09:09:14;11.80;66.58
64111;DHT22;50401;48.188;11.566;2023-03-14T09:11:40;11.82;66.23
64111;DHT22;50401;48.188;11.566;2023-03-14T09:14:06;11.89;66.11
64111;DHT22;50401;48.188;11.566;2023-03-14T09:16:33;11.90;66.04
64111;DHT22;50401;48.188;11.566;2023-03-14T09:18:58;11.98;65.85
64111;DHT22;50401;48.188;11.566;2023-03-14T09:21:25;11.91;66.06
64111;DHT22;50401;48.188;11.566;2023-03-14T09:23:51;11.94;66.27
64111;DHT22;50401;48.188;11.566;2023-03-14T09:26:16;11.97;65.62
64111;DHT22;50401;48.188;11.566;2023-03-14T09:28:41;11.98;65.64
64111;DHT22;50401;48.188;11.566;2023-03-14T09:31:09;11.97;65.97
64111;DHT22;50401;48.188;11.566;2023-03-14T09:33:35;12.00;65.90
64111;DHT22;50401;48.188;11.566;2023-03-14T09:36:00;11.89;65.53
64111;DHT22;50401;48.188;11.566;2023-03-14T09:38:27;11.87;64.93
64111;DHT22;50401;48.188;11.566;2023-03-14T09:40:53;11.79;65.53
64111;DHT22;50401;48.188;11.566;2023-03-14T09:43:20;11.76;65.81
64111;DHT22;50401;48.188;11.566;2023-03-14T09:45:48;11.82;65.60
64111;DHT22;50401;48.188;11.566;2023-03-14T09:48:29;11.90;65.25
64111;DHT22;50401;48.188;11.566;2023-03-14T09:50:56;11.97;65.22
64111;DHT22;50401;48.188;11.566;2023-03-14T09:53:28;11.96;65.05
64111;DHT22;50401;48.188;11.566;2023-03-14T09:55:57;11.98;64.74
64111;DHT22;50401;48.188;11.566;2023-03-14T09:58:24;11.93;64.09
64111;DHT22;50401;48.188;11.566;2023-03-14T10:00:51;11.93;64.03
64111;DHT22;50401;48.188;11.566;2023-03-14T10:03:22;12.01;64.12
64111;DHT22;50401;48.188;11.566;2023-03-14T10:05:47;11.87;63.79
64111;DHT22;50401;48.188;11.566;2023-03-14T10:08:13;11.93;64.01
64111;DHT22;50401;48.188;11.566;2023-03-14T10:10:40;12.00;64.42
64111;DHT22;50401;48.188;11.566;2023-03-14T10:13:19;12.10;63.79
64111;DHT22;50401;48.188;11.566;2023-03-14T10:15:50;12.22;63.94
64111;DHT22;50401;48.188;11.566;2023-03-14T10:18:16;12.38;63.76
64111;DHT22;50401;48.188;11.566;2023-03-14T10:20:44;12.46;63.35
64111;DHT22;50401;48.188;11.566;2023-03-14T10:25:40;12.91;62.51
64111;DHT22;50401;48.188;11.566;2023-03-14T10:28:24;12.91;61.37
64111;DHT22;50401;48.188;11.566;2023-03-14T10:30:49;13.58;60.09
64111;DHT22;50401;48.188;11.566;2023-03-14T10:36:27;13.71;59.59
64111;DHT22;50401;48.188;11.566;2023-03-14T10:38:41;13.78;59.15
64111;DHT22;50401;48.188;11.566;2023-03-14T10:41:24;13.74;59.55
64111;DHT22;50401;48.188;11.566;2023-03-14T10:43:51;13.88;59.46
64111;DHT22;50401;48.188;11.566;2023-03-14T10:46:19;13.94;59.66
64111;DHT22;50401;48.188;11.566;2023-03-14T10:48:45;13.93;58.72
64111;DHT22;50401;48.188;11.566;2023-03-14T10:53:46;13.66;58.96
64111;DHT22;50401;48.188;11.566;2023-03-14T10:56:20;13.46;59.05
64111;DHT22;50401;48.188;11.566;2023-03-14T10:58:48;13.32;58.77
64111;DHT22;50401;48.188;11.566;2023-03-14T11:03:57;13.22;59.68
64111;DHT22;50401;48.188;11.566;2023-03-14T11:09:30;13.11;59.85
64111;DHT22;50401;48.188;11.566;2023-03-14T11:12:14;13.06;60.20
64111;DHT22;50401;48.188;11.566;2023-03-14T11:14:50;13.18;60.06
64111;DHT22;50401;48.188;11.566;2023-03-14T11:17:27;13.14;59.65
64111;DHT22;50401;48.188;11.566;2023-03-14T11:23:04;13.39;58.35
64111;DHT22;50401;48.188;11.566;2023-03-14T11:26:03;13.55;57.48
64111;DHT22;50401;48.188;11.566;2023-03-14T11:28:38;13.70;56.96
64111;DHT22;50401;48.188;11.566;2023-03-14T11:31:18;13.80;56.54
64111;DHT22;50401;48.188;11.566;2023-03-14T11:36:43;13.97;56.59
64111;DHT22;50401;48.188;11.566;2023-03-14T11:39:15;13.93;56.10
64111;DHT22;50401;48.188;11.566;2023-03-14T11:41:43;13.97;56.34
64111;DHT22;50401;48.188;11.566;2023-03-14T11:44:28;14.08;55.60
64111;DHT22;50401;48.188;11.566;2023-03-14T11:47:15;13.95;55.92
64111;DHT22;50401;48.188;11.566;2023-03-14T11:49:46;13.91;56.23
64111;DHT22;50401;48.188;11.566;2023-03-14T11:52:21;13.87;56.33
64111;DHT22;50401;48.188;11.566;2023-03-14T11:54:52;13.71;56.98
64111;DHT22;50401;48.188;11.566;2023-03-14T11:57:21;13.65;57.15
64111;DHT22;50401;48.188;11.566;2023-03-14T12:10:40;13.55;57.89
64111;DHT22;50401;48.188;11.566;2023-03-14T12:13:09;13.46;58.05
64111;DHT22;50401;48.188;11.566;2023-03-14T12:15:39;13.50;57.70
64111;DHT22;50401;48.188;11.566;2023-03-14T12:18:21;13.34;56.90
64111;DHT22;50401;48.188;11.566;2023-03-14T12:20:53;13.29;57.15
64111;DHT22;50401;48.188;11.566;2023-03-14T12:23:19;13.26;56.79
64111;DHT22;50401;48.188;11.566;2023-03-14T12:25:45;13.32;56.95
64111;DHT22;50401;48.188;11.566;2023-03-14T12:28:21;13.28;56.85
64111;DHT22;50401;48.188;11.566;2023-03-14T12:30:55;13.29;57.33
64111;DHT22;50401;48.188;11.566;2023-03-14T12:33:27;13.31;57.47
64111;DHT22;50401;48.188;11.566;2023-03-14T12:36:03;13.45;57.18
64111;DHT22;50401;48.188;11.566;2023-03-14T12:43:45;13.67;57.05
64111;DHT22;50401;48.188;11.566;2023-03-14T12:51:20;13.91;56.47
64111;DHT22;50401;48.188;11.566;2023-03-14T12:54:07;13.87;56.45
64111;DHT22;50401;48.188;11.566;2023-03-14T13:07:12;13.52;57.54
64111;DHT22;50401;48.188;11.566;2023-03-14T13:09:54;13.29;57.62
64111;DHT22;50401;48.188;11.566;2023-03-14T13:12:25;13.14;57.85
64111;DHT22;50401;48.188;11.566;2023-03-14T13:14:53;13.17;58.34
64111;DHT22;50401;48.188;11.566;2023-03-14T13:17:28;13.11;58.27
64111;DHT22;50401;48.188;11.566;2023-03-14T13:19:56;13.03;58.46
64111;DHT22;50401;48.188;11.566;2023-03-14T13:22:27;13.10;58.68
64111;DHT22;50401;48.188;11.566;2023-03-14T13:25:09;13.07;58.93
64111;DHT22;50401;48.188;11.566;2023-03-14T13:27:35;13.06;59.14
64111;DHT22;50401;48.188;11.566;2023-03-14T13:30:26;13.14;59.43
64111;DHT22;50401;48.188;11.566;2023-03-14T13:32:53;13.04;60.39
64111;DHT22;50401;48.188;11.566;2023-03-14T13:35:23;12.91;60.88
64111;DHT22;50401;48.188;11.566;2023-03-14T13:37:58;13.03;61.43
64111;DHT22;50401;48.188;11.566;2023-03-14T13:40:28;13.03;62.50
64111;DHT22;50401;48.188;11.566;2023-03-14T13:46:03;12.63;64.94
64111;DHT22;50401;48.188;11.566;2023-03-14T13:48:31;12.35;65.31
64111;DHT22;50401;48.188;11.566;2023-03-14T13:51:09;12.14;64.65
64111;DHT22;50401;48.188;11.566;2023-03-14T13:56:09;12.17;64.83
64111;DHT22;50401;48.188;11.566;2023-03-14T13:58:37;12.12;65.26
64111;DHT22;50401;48.188;11.566;2023-03-14T14:03:40;11.90;64.81
64111;DHT22;50401;48.188;11.566;2023-03-14T14:06:19;11.78;64.77
64111;DHT22;50401;48.188;11.566;2023-03-14T14:08:46;11.66;65.45
64111;DHT22;50401;48.188;11.566;2023-03-14T14:11:19;11.51;66.93
64111;DHT22;50401;48.188;11.566;2023-03-14T14:13:46;11.39;68.62
64111;DHT22;50401;48.188;11.566;2023-03-14T14:16:12;11.20;69.56
64111;DHT22;50401;48.188;11.566;2023-03-14T14:18:38;10.99;71.15
64111;DHT22;50401;48.188;11.566;2023-03-14T14:21:04;10.80;71.52
64111;DHT22;50401;48.188;11.566;2023-03-14T14:23:30;10.79;72.02
64111;DHT22;50401;48.188;11.566;2023-03-14T14:25:58;10.73;72.50
64111;DHT22;50401;48.188;11.566;2023-03-14T14:28:31;10.60;72.81
64111;DHT22;50401;48.188;11.566;2023-03-14T14:31:18;10.45;72.93
64111;DHT22;50401;48.188;11.566;2023-03-14T14:34:05;10.43;74.05
64111;DHT22;50401;48.188;11.566;2023-03-14T14:36:41;10.47;74.44
64111;DHT22;50401;48.188;11.566;2023-03-14T14:39:22;10.45;75.32
64111;DHT22;50401;48.188;11.566;2023-03-14T14:41:50;10.23;75.72
64111;DHT22;50401;48.188;11.566;2023-03-14T14:44:36;9.99;75.94
64111;DHT22;50401;48.188;11.566;2023-03-14T14:47:03;10.05;76.01
64111;DHT22;50401;48.188;11.566;2023-03-14T14:49:31;9.98;75.79
64111;DHT22;50401;48.188;11.566;2023-03-14T14:52:03;9.99;75.53
64111;DHT22;50401;48.188;11.566;2023-03-14T14:54:54;10.00;75.32
64111;DHT22;50401;48.188;11.566;2023-03-14T14:57:27;9.85;74.90
64111;DHT22;50401;48.188;11.566;2023-03-14T15:00:00;9.74;74.64
64111;DHT22;50401;48.188;11.566;2023-03-14T15:02:35;9.55;75.05
64111;DHT22;50401;48.188;11.566;2023-03-14T15:05:03;9.74;75.10
64111;DHT22;50401;48.188;11.566;2023-03-14T15:07:28;9.64;74.26
64111;DHT22;50401;48.188;11.566;2023-03-14T15:09:53;9.52;74.35
64111;DHT22;50401;48.188;11.566;2023-03-14T15:12:19;9.71;74.46
64111;DHT22;50401;48.188;11.566;2023-03-14T15:14:45;9.81;73.87
64111;DHT22;50401;48.188;11.566;2023-03-14T15:17:11;9.85;73.33
64111;DHT22;50401;48.188;11.566;2023-03-14T15:19:37;9.81;73.32
64111;DHT22;50401;48.188;11.566;2023-03-14T15:22:05;9.77;73.91
64111;DHT22;50401;48.188;11.566;2023-03-14T15:24:34;9.77;74.57
64111;DHT22;50401;48.188;11.566;2023-03-14T15:27:05;9.74;75.46
64111;DHT22;50401;48.188;11.566;2023-03-14T15:29:34;9.27;78.03
64111;DHT22;50401;48.188;11.566;2023-03-14T15:32:00;9.47;78.26
64111;DHT22;50401;48.188;11.566;2023-03-14T15:34:25;9.09;79.18
64111;DHT22;50401;48.188;11.566;2023-03-14T15:36:52;9.05;77.72
64111;DHT22;50401;48.188;11.566;2023-03-14T15:39:17;9.13;77.60
64111;DHT22;50401;48.188;11.566;2023-03-14T15:41:43;9.19;77.49
64111;DHT22;50401;48.188;11.566;2023-03-14T15:44:08;9.20;75.53
64111;DHT22;50401;48.188;11.566;2023-03-14T15:46:34;9.12;74.24
64111;DHT22;50401;48.188;11.566;2023-03-14T15:48:59;9.06;74.24
64111;DHT22;50401;48.188;11.566;2023-03-14T15:51:25;9.06;74.24
64111;DHT22;50401;48.188;11.566;2023-03-14T15:53:50;9.08;73.54
64111;DHT22;50401;48.188;11.566;2023-03-14T15:56:18;9.13;73.11
64111;DHT22;50401;48.188;11.566;2023-03-14T15:58:44;9.18;72.57
64111;DHT22;50401;48.188;11.566;2023-03-14T16:01:12;9.23;71.60
64111;DHT22;50401;48.188;11.566;2023-03-14T16:03:37;9.13;72.15
64111;DHT22;50401;48.188;11.566;2023-03-14T16:06:03;9.19;71.51
64111;DHT22;50401;48.188;11.566;2023-03-14T16:08:29;9.27;72.03
64111;DHT22;50401;48.188;11.566;2023-03-14T16:10:56;9.26;71.65
64111;DHT22;50401;48.188;11.566;2023-03-14T16:13:22;9.32;71.57
64111;DHT22;50401;48.188;11.566;2023-03-14T16:15:58;9.30;71.11
64111;DHT22;50401;48.188;11.566;2023-03-14T16:18:27;9.26;71.65
64111;DHT22;50401;48.188;11.566;2023-03-14T16:20:58;9.27;71.53
64111;DHT22;50401;48.188;11.566;2023-03-14T16:23:24;9.26;71.36
64111;DHT22;50401;48.188;11.566;2023-03-14T16:25:51;9.37;70.85
64111;DHT22;50401;48.188;11.566;2023-03-14T16:28:17;9.40;70.46
64111;DHT22;50401;48.188;11.566;2023-03-14T16:30:42;9.41;69.37
64111;DHT22;50401;48.188;11.566;2023-03-14T16:33:08;9.36;67.79
64111;DHT22;50401;48.188;11.566;2023-03-14T16:35:38;9.30;64.63
64111;DHT22;50401;48.188;11.566;2023-03-14T16:38:03;9.20;63.66
64111;DHT22;50401;48.188;11.566;2023-03-14T16:40:29;9.16;63.09
64111;DHT22;50401;48.188;11.566;2023-03-14T16:42:54;9.20;63.19
64111;DHT22;50401;48.188;11.566;2023-03-14T16:45:20;9.27;63.11